Time;durP1;ratioP1;P1;durP2;ratioP2;P2;SDS_P1;SDS_P2;PMS_P1;PMS_P2;Temp;Humidity;BMP_temperature;BMP_pressure;BME280_temperature;BME280_humidity;BME280_pressure;Samples;Min_cycle;Max_cycle;Signal;HPM_P1;HPM_P2
2021/05/22 00:02:24;;;;;;;0.20;0.10;;;;;;;19.31;49.67;99394.53;4931999;29;20256;-82
2021/05/22 00:04:49;;;;;;;0.70;0.20;;;;;;;19.30;49.84;99390.22;4929280;29;20027;-82
2021/05/22 00:07:15;;;;;;;0.32;0.17;;;;;;;19.29;49.75;99385.88;4916145;29;20028;-82
2021/05/22 00:09:40;;;;;;;1.95;0.20;;;;;;;19.29;49.95;99388.56;4929448;29;20462;-82
2021/05/22 00:12:06;;;;;;;0.32;0.10;;;;;;;19.31;49.68;99399.03;4926977;29;20023;-82
2021/05/22 00:14:31;;;;;;;0.45;0.20;;;;;;;19.28;49.56;99392.22;4928549;29;20158;-82
2021/05/22 00:16:57;;;;;;;0.35;0.20;;;;;;;19.26;49.58;99386.22;4933454;29;20504;-83
2021/05/22 00:19:22;;;;;;;0.82;0.30;;;;;;;19.28;49.70;99378.91;4933339;29;20024;-82
2021/05/22 00:21:47;;;;;;;0.25;0.15;;;;;;;19.29;49.90;99383.22;4933172;29;20036;-82
2021/05/22 00:24:13;;;;;;;0.28;0.20;;;;;;;19.24;49.74;99371.38;4930526;29;20027;-82
2021/05/22 00:26:38;;;;;;;0.73;0.20;;;;;;;19.26;49.89;99380.88;4932800;29;20131;-82
2021/05/22 00:29:03;;;;;;;0.55;0.20;;;;;;;19.29;50.11;99382.41;4931178;29;20497;-82
2021/05/22 00:31:29;;;;;;;0.38;0.20;;;;;;;19.27;49.73;99377.22;4930016;29;20051;-82
2021/05/22 00:33:54;;;;;;;0.77;0.20;;;;;;;19.25;49.97;99378.34;4933159;29;20024;-82
2021/05/22 00:36:20;;;;;;;0.20;0.20;;;;;;;19.25;49.84;99387.22;4930791;29;20434;-82
2021/05/22 00:38:45;;;;;;;0.35;0.20;;;;;;;19.26;49.98;99382.72;4933405;29;20035;-81
2021/05/22 00:41:10;;;;;;;0.10;0.10;;;;;;;19.25;49.71;99384.53;4933003;29;20083;-82
2021/05/22 00:43:36;;;;;;;0.55;0.20;;;;;;;19.24;49.96;99382.03;4932955;29;20154;-82
2021/05/22 00:46:08;;;;;;;0.75;0.20;;;;;;;19.26;49.50;99382.72;4928238;29;20099;-81
2021/05/22 00:48:33;;;;;;;0.22;0.20;;;;;;;19.23;49.81;99375.88;4913638;29;20035;-81
2021/05/22 00:50:58;;;;;;;2.28;0.20;;;;;;;19.23;49.75;99383.84;4932850;29;20020;-81
2021/05/22 00:53:24;;;;;;;0.20;0.20;;;;;;;19.24;49.29;99390.84;4932501;29;20086;-80
2021/05/22 00:55:49;;;;;;;0.98;0.30;;;;;;;19.22;49.96;99384.03;4932639;29;20031;-81
2021/05/22 00:58:15;;;;;;;0.30;0.15;;;;;;;19.23;49.93;99380.38;4932354;29;20043;-81
2021/05/22 01:00:45;;;;;;;1.02;0.30;;;;;;;19.23;49.82;99375.03;4929624;29;20829;-81
2021/05/22 01:03:20;;;;;;;0.20;0.20;;;;;;;19.24;50.18;99382.03;4914198;29;20028;-81
2021/05/22 01:05:46;;;;;;;0.47;0.20;;;;;;;19.25;49.71;99373.03;4932777;29;20047;-81
2021/05/22 01:08:20;;;;;;;0.40;0.20;;;;;;;19.25;49.93;99381.88;4930469;29;20055;-81
2021/05/22 01:10:50;;;;;;;0.30;0.10;;;;;;;19.25;49.88;99384.53;4904291;29;20032;-82
2021/05/22 01:13:18;;;;;;;0.55;0.20;;;;;;;19.24;49.84;99379.34;4904186;29;20031;-81
2021/05/22 01:15:46;;;;;;;0.40;0.20;;;;;;;19.24;50.41;99374.03;4915861;29;20027;-81
2021/05/22 01:18:12;;;;;;;0.10;0.10;;;;;;;19.22;50.35;99368.88;4914717;29;20083;-82
2021/05/22 01:20:42;;;;;;;1.17;0.20;;;;;;;19.22;49.99;99368.88;4931274;29;20111;-82
2021/05/22 01:23:20;;;;;;;0.77;0.13;;;;;;;19.22;49.74;99363.56;4931879;29;20487;-82
2021/05/22 01:25:46;;;;;;;0.43;0.20;;;;;;;19.22;50.39;99368.03;4932170;29;20035;-82
2021/05/22 01:28:11;;;;;;;0.88;0.25;;;;;;;19.22;49.93;99358.22;4928214;29;20510;-82
2021/05/22 01:30:37;;;;;;;1.42;0.30;;;;;;;19.23;50.04;99354.56;4917454;29;20024;-82
2021/05/22 01:33:04;;;;;;;0.35;0.20;;;;;;;19.23;50.26;99356.38;4911344;29;20016;-82
2021/05/22 01:35:30;;;;;;;0.20;0.20;;;;;;;19.23;49.90;99353.72;4923311;29;20031;-82
2021/05/22 01:37:55;;;;;;;0.38;0.20;;;;;;;19.21;49.93;99348.53;4932645;29;20471;-82
2021/05/22 01:40:20;;;;;;;0.32;0.20;;;;;;;19.21;50.12;99351.22;4930303;29;20043;-82
2021/05/22 01:42:46;;;;;;;0.88;0.30;;;;;;;19.23;50.45;99356.38;4931765;29;20032;-81
2021/05/22 01:45:17;;;;;;;0.20;0.20;;;;;;;19.22;50.16;99349.41;4929874;29;20035;-81
2021/05/22 01:47:44;;;;;;;1.30;0.28;;;;;;;19.20;50.12;99354.88;4915591;29;20038;-81
2021/05/22 01:50:10;;;;;;;0.50;0.10;;;;;;;19.21;50.12;99351.22;4927611;29;20032;-81
2021/05/22 01:52:37;;;;;;;0.22;0.20;;;;;;;19.22;50.15;99352.06;4924232;29;20042;-81
2021/05/22 01:55:03;;;;;;;1.55;0.20;;;;;;;19.22;50.44;99350.22;4928733;29;20108;-81
2021/05/22 01:57:33;;;;;;;0.25;0.20;;;;;;;19.22;50.28;99352.06;4925893;29;20110;-81
2021/05/22 01:59:59;;;;;;;0.38;0.20;;;;;;;19.19;50.12;99339.91;4930489;29;20028;-81
2021/05/22 02:02:24;;;;;;;0.70;0.20;;;;;;;19.20;50.16;99346.88;4929705;29;20396;-81
2021/05/22 02:04:50;;;;;;;1.08;0.28;;;;;;;19.19;50.12;99339.91;4928936;29;20034;-81
2021/05/22 02:07:18;;;;;;;0.32;0.20;;;;;;;19.21;50.12;99351.22;4932111;29;20055;-80
2021/05/22 02:09:44;;;;;;;0.32;0.20;;;;;;;19.20;50.29;99346.88;4914005;29;20083;-81
2021/05/22 02:12:10;;;;;;;0.30;0.20;;;;;;;19.19;50.18;99355.88;4927596;29;20183;-81
2021/05/22 02:14:37;;;;;;;0.30;0.20;;;;;;;19.18;49.96;99352.38;4931117;29;20402;-81
2021/05/22 02:17:05;;;;;;;1.17;0.20;;;;;;;19.20;50.12;99351.38;4914310;29;20111;-81
2021/05/22 02:19:32;;;;;;;0.85;0.30;;;;;;;19.18;49.69;99352.38;4929647;29;20047;-81
2021/05/22 02:22:00;;;;;;;0.30;0.17;;;;;;;19.17;49.81;99353.34;4928931;29;20023;-81
2021/05/22 02:24:26;;;;;;;0.57;0.20;;;;;;;19.18;49.61;99341.72;4924755;29;20040;-82
2021/05/22 02:26:52;;;;;;;0.25;0.15;;;;;;;19.20;50.23;99348.72;4929060;29;20044;-81
2021/05/22 02:29:21;;;;;;;0.40;0.20;;;;;;;19.18;49.72;99346.22;4910797;29;20078;-82
2021/05/22 02:31:48;;;;;;;0.10;0.10;;;;;;;19.18;49.76;99343.56;4913476;29;20375;-80
2021/05/22 02:34:16;;;;;;;1.50;0.20;;;;;;;19.19;50.08;99345.22;4917374;29;20031;-81
2021/05/22 02:36:43;;;;;;;0.65;0.30;;;;;;;19.17;49.77;99347.19;4933928;29;20505;-81
2021/05/22 02:39:08;;;;;;;0.70;0.25;;;;;;;19.19;50.39;99350.56;4917932;29;20078;-80
2021/05/22 02:41:35;;;;;;;0.82;0.20;;;;;;;19.20;49.71;99348.72;4914916;29;20047;-81
2021/05/22 02:44:02;;;;;;;0.20;0.10;;;;;;;19.18;50.20;99344.41;4917955;29;20020;-81
2021/05/22 02:46:28;;;;;;;0.43;0.20;;;;;;;19.18;49.55;99339.06;4917905;29;20036;-81
2021/05/22 02:48:54;;;;;;;0.47;0.20;;;;;;;19.20;50.20;99332.72;4933962;29;20027;-82
2021/05/22 02:51:21;;;;;;;0.90;0.30;;;;;;;19.19;49.58;99337.22;4931687;29;20391;-81
2021/05/22 02:53:46;;;;;;;1.45;0.28;;;;;;;19.17;49.87;99323.22;4930503;29;20237;-81
2021/05/22 02:56:12;;;;;;;0.63;0.20;;;;;;;19.14;49.92;99311.09;4930430;29;20061;-82
2021/05/22 02:58:40;;;;;;;0.82;0.32;;;;;;;19.19;50.13;99329.25;4925699;29;20039;-82
2021/05/22 03:01:06;;;;;;;0.30;0.17;;;;;;;19.18;49.67;99325.75;4924960;29;20059;-82
2021/05/22 03:03:32;;;;;;;0.22;0.20;;;;;;;19.20;50.26;99322.09;4918189;29;20028;-82
2021/05/22 03:06:02;;;;;;;0.93;0.30;;;;;;;19.18;50.31;99320.41;4917158;29;20051;-81
2021/05/22 03:08:27;;;;;;;0.80;0.30;;;;;;;19.17;50.08;99316.06;4934914;29;20168;-81
2021/05/22 03:10:54;;;;;;;0.17;0.10;;;;;;;19.18;50.05;99322.25;4935209;29;20024;-82
2021/05/22 03:13:20;;;;;;;0.30;0.20;;;;;;;19.19;49.91;99323.91;4930450;29;20032;-81
2021/05/22 03:15:45;;;;;;;0.38;0.20;;;;;;;19.16;49.89;99306.41;4925186;29;20031;-82
2021/05/22 03:18:10;;;;;;;0.20;0.10;;;;;;;19.18;50.21;99317.75;4935279;29;20028;-81
2021/05/22 03:20:36;;;;;;;0.25;0.20;;;;;;;19.18;50.27;99306.28;4932687;29;20075;-81
2021/05/22 03:23:01;;;;;;;0.45;0.15;;;;;;;19.17;49.87;99302.75;4932950;29;20040;-81
2021/05/22 03:25:26;;;;;;;0.55;0.25;;;;;;;19.17;50.08;99305.41;4916341;29;20478;-82
2021/05/22 03:27:51;;;;;;;0.63;0.20;;;;;;;19.18;50.28;99301.78;4933960;29;20031;-82
2021/05/22 03:30:17;;;;;;;1.30;0.20;;;;;;;19.19;50.12;99307.94;4931601;29;20035;-82
2021/05/22 03:32:42;;;;;;;0.30;0.10;;;;;;;19.17;50.07;99299.25;4931548;29;20058;-81
2021/05/22 03:35:08;;;;;;;0.30;0.30;;;;;;;19.18;49.89;99293.78;4932545;29;20040;-81
2021/05/22 03:37:33;;;;;;;0.25;0.20;;;;;;;19.20;50.57;99306.94;4934363;29;20023;-81
2021/05/22 03:39:59;;;;;;;1.25;0.17;;;;;;;19.19;49.87;99299.94;4931817;29;20107;-81
2021/05/22 03:42:24;;;;;;;0.43;0.30;;;;;;;19.17;50.12;99299.25;4932967;29;20027;-81
2021/05/22 03:44:49;;;;;;;2.10;0.32;;;;;;;19.20;50.45;99308.75;4934151;29;20031;-82
2021/05/22 03:47:15;;;;;;;0.20;0.20;;;;;;;19.17;50.05;99297.44;4934171;29;20027;-81
2021/05/22 03:49:40;;;;;;;0.28;0.17;;;;;;;19.17;50.38;99297.44;4934012;29;20570;-81
2021/05/22 03:52:05;;;;;;;0.55;0.20;;;;;;;19.18;50.28;99301.78;4933808;29;20056;-81
2021/05/22 03:54:31;;;;;;;0.15;0.10;;;;;;;19.20;50.23;99306.09;4933703;29;20110;-80
2021/05/22 03:56:56;;;;;;;0.32;0.20;;;;;;;19.18;50.18;99296.44;4907752;29;20027;-81
2021/05/22 03:59:22;;;;;;;0.20;0.20;;;;;;;19.18;49.94;99299.13;4931149;29;20039;-81
2021/05/22 04:01:47;;;;;;;0.90;0.10;;;;;;;19.20;50.22;99300.78;4925508;29;20036;-81
2021/05/22 04:04:12;;;;;;;0.22;0.22;;;;;;;19.17;50.03;99296.59;4915237;29;20115;-81
2021/05/22 04:06:38;;;;;;;1.15;0.20;;;;;;;19.18;50.07;99307.09;4931660;29;20111;-82
2021/05/22 04:09:04;;;;;;;0.43;0.20;;;;;;;19.16;49.74;99298.44;4934163;29;20027;-82
2021/05/22 04:11:29;;;;;;;0.65;0.20;;;;;;;19.17;49.99;99296.59;4932173;29;20104;-82
2021/05/22 04:13:55;;;;;;;0.73;0.30;;;;;;;19.15;50.19;99295.94;4933754;29;20071;-81
2021/05/22 04:16:20;;;;;;;0.20;0.20;;;;;;;19.15;49.99;99291.44;4932137;29;20024;-81
2021/05/22 04:18:45;;;;;;;0.68;0.20;;;;;;;19.15;50.12;99294.09;4916500;29;20036;-81
2021/05/22 04:21:11;;;;;;;1.17;0.25;;;;;;;19.17;50.00;99286.78;4916910;29;20028;-80
2021/05/22 04:23:37;;;;;;;0.45;0.20;;;;;;;19.18;50.53;99287.63;4932023;29;20035;-81
2021/05/22 04:26:02;;;;;;;0.70;0.17;;;;;;;19.17;49.78;99296.59;4926972;29;20392;-82
2021/05/22 04:28:27;;;;;;;0.17;0.17;;;;;;;19.16;50.10;99294.94;4928034;29;20406;-80
2021/05/22 04:30:53;;;;;;;0.75;0.20;;;;;;;19.18;50.62;99300.94;4913257;29;20114;-81
2021/05/22 04:33:18;;;;;;;0.73;0.20;;;;;;;19.17;50.29;99286.78;4914240;29;20131;-80
2021/05/22 04:35:44;;;;;;;0.22;0.20;;;;;;;19.17;49.87;99291.28;4932925;29;20082;-80
2021/05/22 04:38:09;;;;;;;0.40;0.22;;;;;;;19.19;50.14;99297.28;4933129;29;20086;-81
2021/05/22 04:40:35;;;;;;;0.47;0.13;;;;;;;19.19;50.11;99291.97;4932882;29;20066;-80
2021/05/22 04:43:00;;;;;;;0.50;0.30;;;;;;;19.19;49.97;99289.28;4932947;29;20055;-81
2021/05/22 04:45:25;;;;;;;1.95;0.30;;;;;;;19.19;50.23;99289.28;4931906;29;20039;-81
2021/05/22 04:47:51;;;;;;;0.43;0.20;;;;;;;19.19;50.05;99294.63;4932074;29;20784;-81
2021/05/22 04:50:17;;;;;;;0.30;0.20;;;;;;;19.21;50.30;99294.44;4932753;29;20083;-80
2021/05/22 04:52:42;;;;;;;0.50;0.20;;;;;;;19.20;49.91;99288.28;4932503;29;20467;-81
2021/05/22 04:55:08;;;;;;;0.32;0.20;;;;;;;19.21;50.46;99291.78;4931781;29;20257;-80
2021/05/22 04:57:33;;;;;;;0.35;0.20;;;;;;;19.17;49.99;99289.44;4932275;29;20505;-80
2021/05/22 04:59:59;;;;;;;0.35;0.20;;;;;;;19.21;49.97;99281.13;4928673;29;20031;-80
2021/05/22 05:02:24;;;;;;;0.60;0.22;;;;;;;19.21;50.42;99297.09;4930898;29;20036;-80
2021/05/22 05:04:49;;;;;;;0.40;0.20;;;;;;;19.20;50.10;99296.28;4929688;29;20047;-80
2021/05/22 05:07:15;;;;;;;0.15;0.15;;;;;;;19.20;50.23;99293.63;4926254;29;20390;-80
2021/05/22 05:09:40;;;;;;;0.55;0.20;;;;;;;19.20;49.83;99279.47;4931913;29;20378;-80
2021/05/22 05:12:07;;;;;;;0.40;0.22;;;;;;;19.22;50.42;99294.28;4915409;29;20071;-79
2021/05/22 05:14:33;;;;;;;0.98;0.20;;;;;;;19.20;50.26;99296.28;4930779;29;20048;-81
2021/05/22 05:16:58;;;;;;;0.73;0.20;;;;;;;19.20;50.57;99296.28;4930280;29;20088;-79
2021/05/22 05:19:27;;;;;;;0.43;0.10;;;;;;;19.19;50.40;99294.63;4931963;29;20043;-80
2021/05/22 05:21:52;;;;;;;0.20;0.15;;;;;;;19.21;50.50;99295.28;4932309;29;20107;-80
2021/05/22 05:24:17;;;;;;;0.73;0.20;;;;;;;19.19;50.43;99289.28;4929790;29;20139;-80
2021/05/22 05:26:43;;;;;;;1.17;0.40;;;;;;;19.18;50.40;99291.13;4931713;29;20032;-81
2021/05/22 05:29:08;;;;;;;0.68;0.20;;;;;;;19.21;49.91;99289.94;4928712;29;20032;-79
2021/05/22 05:31:33;;;;;;;0.70;0.20;;;;;;;19.23;50.59;99298.63;4927258;29;20072;-81
2021/05/22 05:33:59;;;;;;;0.55;0.20;;;;;;;19.20;49.87;99285.63;4929737;29;20098;-80
2021/05/22 05:36:24;;;;;;;1.67;0.47;;;;;;;19.23;50.28;99282.63;4915023;29;20034;-80
2021/05/22 05:38:49;;;;;;;0.68;0.20;;;;;;;19.23;50.32;99279.97;4931172;29;20472;-81
2021/05/22 05:41:14;;;;;;;0.30;0.20;;;;;;;19.23;50.72;99281.81;4931560;29;20040;-81
2021/05/22 05:43:40;;;;;;;0.25;0.10;;;;;;;19.22;50.88;99283.66;4930740;29;20035;-80
2021/05/22 05:46:05;;;;;;;0.20;0.20;;;;;;;19.26;50.55;99300.13;4931293;29;20028;-80
2021/05/22 05:48:30;;;;;;;0.80;0.20;;;;;;;19.20;50.39;99268.81;4931190;29;20059;-80
2021/05/22 05:50:56;;;;;;;2.55;0.38;;;;;;;19.23;50.44;99281.81;4931609;29;20032;-79
2021/05/22 05:53:21;;;;;;;0.20;0.20;;;;;;;19.26;50.23;99279.66;4924211;29;20027;-80
2021/05/22 05:55:46;;;;;;;0.30;0.30;;;;;;;19.26;50.61;99286.81;4922881;29;20028;-81
2021/05/22 05:58:12;;;;;;;0.28;0.20;;;;;;;19.24;50.76;99280.81;4929142;29;20031;-83
2021/05/22 06:00:40;;;;;;;0.43;0.17;;;;;;;19.24;50.67;99278.13;4926447;29;20035;-83
2021/05/22 06:03:05;;;;;;;0.38;0.17;;;;;;;19.26;50.13;99286.81;4923165;29;20031;-83
2021/05/22 06:05:31;;;;;;;0.20;0.20;;;;;;;19.23;50.45;99293.28;4925685;29;20032;-82
2021/05/22 06:07:56;;;;;;;0.30;0.20;;;;;;;19.25;50.69;99283.31;4923909;29;20046;-81
2021/05/22 06:10:21;;;;;;;0.77;0.20;;;;;;;19.26;50.69;99305.47;4925334;29;20126;-83
2021/05/22 06:12:47;;;;;;;1.08;0.22;;;;;;;19.27;50.74;99283.16;4923353;29;20102;-83
2021/05/22 06:17:42;;;;;;;2.10;0.40;;;;;;;19.27;51.02;99299.97;4926420;29;20035;-82
2021/05/22 06:20:08;;;;;;;0.70;0.20;;;;;;;19.27;50.84;99307.13;4912944;29;20031;-83
2021/05/22 06:22:33;;;;;;;2.40;0.50;;;;;;;19.29;50.70;99294.50;4924300;29;20059;-82
2021/05/22 06:24:59;;;;;;;0.70;0.30;;;;;;;19.28;50.50;99306.13;4928800;29;20039;-82
2021/05/22 06:27:25;;;;;;;0.20;0.20;;;;;;;19.27;50.60;99291.97;4924222;29;20526;-82
2021/05/22 06:29:50;;;;;;;2.47;0.40;;;;;;;19.28;50.44;99292.78;4920190;29;20059;-83
2021/05/22 06:32:15;;;;;;;3.83;0.40;;;;;;;19.25;50.47;99293.97;4931497;29;20047;-83
2021/05/22 06:34:41;;;;;;;0.50;0.30;;;;;;;19.26;50.43;99302.78;4587094;29;10001174;-82
2021/05/22 06:37:06;;;;;;;2.63;0.90;;;;;;;19.25;50.52;99304.63;4920916;29;20072;-82
2021/05/22 06:39:31;;;;;;;2.97;0.50;;;;;;;19.24;50.93;99294.13;4919402;29;20066;-83
2021/05/22 06:41:57;;;;;;;2.90;0.68;;;;;;;19.25;51.11;99291.31;4925939;29;20028;-82
2021/05/22 06:44:28;;;;;;;1.35;0.50;;;;;;;19.26;51.25;99297.47;4925397;29;20054;-83
2021/05/22 06:46:53;;;;;;;2.42;0.40;;;;;;;19.27;50.50;99291.97;4910168;29;20411;-82
2021/05/22 06:49:19;;;;;;;0.93;0.70;;;;;;;19.23;50.92;99282.63;4906050;29;20123;-82
2021/05/22 06:51:45;;;;;;;3.40;0.50;;;;;;;19.26;50.61;99297.47;4920437;29;20461;-82
2021/05/22 06:54:11;;;;;;;1.42;0.40;;;;;;;19.24;51.12;99296.78;4914253;29;20032;-82
2021/05/22 06:56:36;;;;;;;2.58;0.40;;;;;;;19.26;51.05;99298.31;4928279;29;20019;-83
2021/05/22 06:59:02;;;;;;;1.33;0.40;;;;;;;19.27;51.14;99302.63;4925974;29;20038;-83
2021/05/22 07:01:27;;;;;;;6.18;0.50;;;;;;;19.26;51.11;99300.97;4918028;29;20023;-83
2021/05/22 07:03:54;;;;;;;1.77;0.55;;;;;;;19.27;51.07;99299.13;4930110;29;20050;-82
2021/05/22 07:06:21;;;;;;;1.60;0.50;;;;;;;19.26;51.44;99289.47;4929257;29;20031;-83
2021/05/22 07:08:46;;;;;;;1.70;0.38;;;;;;;19.26;51.09;99286.81;4923805;29;20020;-82
2021/05/22 07:11:11;;;;;;;1.27;0.40;;;;;;;19.26;51.62;99290.31;4921100;29;20083;-82
2021/05/22 07:13:37;;;;;;;0.65;0.38;;;;;;;19.25;51.24;99296.63;4928098;29;20492;-82
2021/05/22 07:16:04;;;;;;;1.45;0.40;;;;;;;19.25;51.60;99283.31;4922824;29;20035;-82
2021/05/22 07:18:29;;;;;;;1.67;0.80;;;;;;;19.26;51.29;99292.97;4924496;29;20024;-81
2021/05/22 07:20:55;;;;;;;3.90;0.77;;;;;;;19.27;51.36;99291.97;4940711;29;20031;-82
2021/05/22 07:23:20;;;;;;;1.15;0.35;;;;;;;19.26;51.52;99290.31;4924137;29;20100;-82
2021/05/22 07:25:45;;;;;;;1.30;0.50;;;;;;;19.29;51.16;99295.31;4905747;29;20047;-81
2021/05/22 07:28:14;;;;;;;1.52;0.40;;;;;;;19.28;51.64;99298.13;4908844;29;20466;-82
2021/05/22 07:30:40;;;;;;;3.40;0.73;;;;;;;19.29;51.63;99307.81;4905324;29;20027;-81
2021/05/22 07:33:05;;;;;;;1.67;0.57;;;;;;;19.26;51.88;99287.66;4919250;29;20502;-82
2021/05/22 07:35:30;;;;;;;1.75;0.60;;;;;;;19.28;51.74;99301.66;4901162;29;20698;-81
2021/05/22 07:37:56;;;;;;;2.75;0.60;;;;;;;19.28;51.79;99298.13;4930331;28;20027;-83
2021/05/22 07:40:21;;;;;;;2.08;0.40;;;;;;;19.29;52.19;99290.00;4921804;29;20032;-83
2021/05/22 07:42:50;;;;;;;1.38;0.40;;;;;;;19.29;51.75;99294.50;4920386;29;20114;-81
2021/05/22 07:45:18;;;;;;;1.17;0.50;;;;;;;19.25;52.04;99285.13;4931998;28;20114;-82
2021/05/22 07:47:43;;;;;;;2.25;0.47;;;;;;;19.30;51.57;99286.31;4923781;29;20040;-81
2021/05/22 07:50:09;;;;;;;2.42;0.70;;;;;;;19.31;52.04;99295.97;4922997;29;20544;-82
2021/05/22 07:52:34;;;;;;;2.90;0.75;;;;;;;19.30;51.59;99291.66;4924784;29;20365;-81
2021/05/22 07:55:00;;;;;;;1.45;0.50;;;;;;;19.31;52.15;99285.31;4898132;29;20034;-83
2021/05/22 07:57:25;;;;;;;1.92;0.50;;;;;;;19.32;51.74;99299.50;4906443;29;20035;-82
2021/05/22 07:59:50;;;;;;;0.77;0.40;;;;;;;19.32;51.76;99294.16;4921566;29;20650;-79
2021/05/22 08:02:16;;;;;;;1.80;0.80;;;;;;;19.31;51.93;99298.63;4900320;29;20126;-79
2021/05/22 08:04:42;;;;;;;2.58;0.80;;;;;;;19.32;52.03;99300.31;4922345;29;20039;-80
2021/05/22 08:07:08;;;;;;;2.80;1.00;;;;;;;19.33;51.83;99293.16;4902293;29;20027;-80
2021/05/22 08:09:33;;;;;;;4.30;0.80;;;;;;;19.33;51.89;99296.66;4922643;29;20947;-79
2021/05/22 08:11:58;;;;;;;2.03;0.68;;;;;;;19.32;51.46;99294.16;4916351;29;20031;-78
2021/05/22 08:14:24;;;;;;;3.13;0.70;;;;;;;19.32;51.75;99296.84;4905095;29;20047;-80
2021/05/22 08:16:49;;;;;;;2.47;0.50;;;;;;;19.31;51.45;99303.97;4921472;29;20027;-83
2021/05/22 08:19:14;;;;;;;1.92;0.70;;;;;;;19.31;51.30;99305.78;4920134;29;20136;-80
2021/05/22 08:21:40;;;;;;;1.92;0.60;;;;;;;19.33;51.23;99301.16;4916648;29;20109;-84
2021/05/22 08:24:07;;;;;;;3.10;0.95;;;;;;;19.34;51.51;99305.47;4921261;29;20028;-81
2021/05/22 08:26:32;;;;;;;5.63;1.75;;;;;;;19.33;51.89;99299.31;4925576;29;20035;-82
2021/05/22 08:28:58;;;;;;;4.75;2.38;;;;;;;19.32;51.90;99304.81;4922774;29;20032;-78
2021/05/22 08:31:23;;;;;;;5.20;1.90;;;;;;;19.31;51.56;99308.47;4917112;29;20043;-77
2021/05/22 08:33:49;;;;;;;5.88;1.85;;;;;;;19.29;51.72;99300.66;4924119;29;20020;-77
2021/05/22 08:36:14;;;;;;;6.07;2.20;;;;;;;19.32;51.80;99312.81;4922011;29;20294;-78
2021/05/22 08:38:40;;;;;;;3.75;1.83;;;;;;;19.34;52.11;99311.63;4926817;29;20032;-79
2021/05/22 08:41:08;;;;;;;5.15;2.17;;;;;;;19.33;51.70;99312.63;4908295;29;20087;-78
2021/05/22 08:43:33;;;;;;;4.90;1.60;;;;;;;19.32;51.32;99315.47;4919596;29;20062;-81
2021/05/22 08:45:59;;;;;;;5.22;1.20;;;;;;;19.32;48.29;99321.63;4923849;29;20326;-82
2021/05/22 08:48:24;;;;;;;2.45;0.90;;;;;;;19.28;47.47;99311.44;4926645;29;20035;-80
2021/05/22 08:50:51;;;;;;;3.97;1.00;;;;;;;19.26;48.50;99316.94;4922068;29;20606;-78
2021/05/22 08:53:16;;;;;;;7.13;1.58;;;;;;;19.26;48.74;99316.94;4922680;29;20035;-81
2021/05/22 08:55:42;;;;;;;1.20;0.50;;;;;;;19.24;49.48;99316.25;4922407;29;20388;-79
2021/05/22 08:58:07;;;;;;;3.35;1.40;;;;;;;19.24;49.67;99315.44;4927710;29;20031;-80
2021/05/22 09:00:39;;;;;;;2.47;0.75;;;;;;;19.25;48.62;99322.41;4921584;29;20023;-80
2021/05/22 09:03:08;;;;;;;2.10;0.43;;;;;;;19.20;48.83;99322.91;4907677;29;20027;-79
2021/05/22 09:05:34;;;;;;;3.28;0.63;;;;;;;19.18;50.03;99328.41;4924586;29;20038;-79
2021/05/22 09:08:01;;;;;;;4.72;0.80;;;;;;;19.20;51.38;99346.06;4925330;29;20023;-79
2021/05/22 09:10:34;;;;;;;2.53;0.68;;;;;;;19.19;52.27;99342.56;4924571;29;20039;-79
2021/05/22 09:13:08;;;;;;;3.55;0.70;;;;;;;19.19;52.50;99337.22;4921558;29;20040;-80
2021/05/22 09:15:36;;;;;;;4.38;0.93;;;;;;;19.18;52.72;99343.56;4927187;29;20042;-81
2021/05/22 09:18:14;;;;;;;2.42;0.70;;;;;;;19.19;53.61;99337.22;4922620;29;20036;-82
2021/05/22 09:20:47;;;;;;;5.22;1.10;;;;;;;19.19;53.79;99345.22;4911021;29;20035;-81
2021/05/22 09:23:14;;;;;;;4.43;0.80;;;;;;;19.17;54.11;99344.53;4921459;29;20071;-82
2021/05/22 09:25:47;;;;;;;4.25;0.85;;;;;;;19.21;54.21;99353.03;4927853;29;20423;-81
2021/05/22 09:28:15;;;;;;;1.63;0.63;;;;;;;19.21;54.41;99345.88;4920099;29;20565;-84
2021/05/22 09:30:41;;;;;;;2.42;0.80;;;;;;;19.18;54.50;99333.75;4926683;29;20031;-84
2021/05/22 09:33:14;;;;;;;3.97;0.77;;;;;;;19.19;54.55;99326.56;4927526;29;20443;-83
2021/05/22 09:35:41;;;;;;;3.80;1.00;;;;;;;19.22;54.41;99336.09;4911466;29;20031;-83
2021/05/22 09:38:06;;;;;;;2.67;0.90;;;;;;;19.20;54.46;99336.22;4927417;29;20031;-84
2021/05/22 09:40:34;;;;;;;5.55;1.05;;;;;;;19.22;51.98;99334.25;4924327;29;20099;-85
2021/05/22 09:43:00;;;;;;;2.50;0.57;;;;;;;19.20;53.30;99333.56;4924034;29;20023;-84
2021/05/22 09:45:27;;;;;;;2.75;0.70;;;;;;;19.19;53.32;99334.56;4912299;29;20028;-86
2021/05/22 09:47:53;;;;;;;1.83;0.52;;;;;;;19.20;53.38;99332.72;4928562;29;20034;-85
2021/05/22 09:50:33;;;;;;;3.83;0.90;;;;;;;19.20;53.13;99346.06;4913019;29;20031;-80
2021/05/22 09:53:00;;;;;;;3.60;0.90;;;;;;;19.19;53.01;99331.91;4928034;29;20019;-83
2021/05/22 09:55:25;;;;;;;2.05;1.13;;;;;;;19.17;53.49;99328.56;4914713;29;20496;-83
2021/05/22 09:57:52;;;;;;;4.30;0.70;;;;;;;19.19;53.91;99331.91;4894487;29;20109;-81
2021/05/22 10:00:19;;;;;;;4.32;0.98;;;;;;;19.21;53.48;99334.41;4926164;29;20047;-83
2021/05/22 10:02:53;;;;;;;3.03;0.60;;;;;;;19.20;53.87;99344.22;4926564;29;20039;-82
2021/05/22 10:05:21;;;;;;;2.70;0.60;;;;;;;19.21;53.53;99339.72;4928421;29;20039;-82
2021/05/22 10:07:49;;;;;;;3.80;0.63;;;;;;;19.18;53.39;99332.91;4926450;29;20038;-81
2021/05/22 10:10:16;;;;;;;2.70;0.60;;;;;;;19.21;53.86;99329.06;4927215;29;20031;-82
2021/05/22 10:12:43;;;;;;;3.10;0.82;;;;;;;19.22;54.04;99334.25;4927065;29;20114;-80
2021/05/22 10:15:09;;;;;;;3.67;0.68;;;;;;;19.21;53.72;99324.56;4925694;29;20059;-81
2021/05/22 10:17:34;;;;;;;3.22;0.60;;;;;;;19.23;53.78;99337.75;4917962;29;20040;-81
2021/05/22 10:20:00;;;;;;;3.72;0.77;;;;;;;19.22;53.44;99338.75;4894236;29;20055;-80
2021/05/22 10:22:25;;;;;;;5.22;0.60;;;;;;;19.22;53.44;99338.75;4926302;29;20036;-81
2021/05/22 10:24:52;;;;;;;1.52;0.50;;;;;;;19.23;52.65;99335.91;4910063;29;20082;-81
2021/05/22 10:27:20;;;;;;;2.28;0.50;;;;;;;19.25;52.54;99347.25;4924704;29;20893;-81
2021/05/22 10:29:45;;;;;;;3.90;0.65;;;;;;;19.27;50.11;99333.75;4925528;29;20497;-82
2021/05/22 10:32:22;;;;;;;2.75;0.52;;;;;;;19.27;49.40;99345.25;4927549;29;20150;-82
2021/05/22 10:34:49;;;;;;;1.58;0.45;;;;;;;19.23;49.20;99335.91;4911016;29;20047;-82
2021/05/22 10:37:45;;;;;;;2.67;0.70;;;;;;;19.22;49.32;99354.72;4924988;29;20118;-83
2021/05/22 10:40:12;;;;;;;3.58;0.50;;;;;;;19.21;49.36;99350.38;4928183;29;20503;-82
2021/05/22 10:42:38;;;;;;;1.40;0.50;;;;;;;19.17;49.76;99356.03;4925801;29;20024;-82
2021/05/22 10:45:35;;;;;;;3.75;0.60;;;;;;;19.15;49.41;99352.69;4913517;29;20391;-81
2021/05/22 10:48:02;;;;;;;2.42;0.60;;;;;;;19.11;49.16;99355.81;4930066;29;20103;-81
2021/05/22 10:50:47;;;;;;;2.97;0.52;;;;;;;19.07;49.05;99355.31;4929649;29;20631;-81
2021/05/22 10:53:34;;;;;;;2.90;0.68;;;;;;;19.02;49.46;99360.28;4916754;29;20242;-81
2021/05/22 10:56:08;;;;;;;3.63;0.63;;;;;;;18.99;48.99;99355.28;4933608;29;20024;-82
2021/05/22 10:58:34;;;;;;;2.35;0.60;;;;;;;18.92;49.23;99357.75;4933524;29;20530;-82
2021/05/22 11:01:59;;;;;;;3.20;0.82;;;;;;;18.90;49.47;99356.22;4922063;29;20062;-81
2021/05/22 11:04:25;;;;;;;3.25;0.70;;;;;;;18.88;49.37;99358.22;4922604;29;20083;-82
2021/05/22 11:06:51;;;;;;;5.40;0.82;;;;;;;18.84;49.38;99364.88;4933444;29;20042;-81
2021/05/22 11:09:30;;;;;;;2.00;0.50;;;;;;;18.82;50.00;99366.84;4930578;29;20047;-81
2021/05/22 11:11:57;;;;;;;;;;;;;;;18.79;49.33;99362.66;4915494;29;20211;-82
2021/05/22 11:14:36;;;;;;;2.08;0.55;;;;;;;18.79;49.92;99367.16;4930475;29;20031;-81
2021/05/22 11:17:19;;;;;;;1.95;0.60;;;;;;;18.78;49.97;99368.97;4934102;29;20027;-81
2021/05/22 11:19:57;;;;;;;1.80;0.50;;;;;;;18.79;49.69;99370.63;4933378;29;20107;-81
2021/05/22 11:22:23;;;;;;;2.10;0.80;;;;;;;18.79;49.51;99380.44;4931510;29;20035;-81
2021/05/22 11:25:09;;;;;;;3.20;0.43;;;;;;;18.78;49.49;99368.97;4915656;29;20032;-81
2021/05/22 11:27:56;;;;;;;2.55;0.68;;;;;;;18.80;49.46;99374.97;4911989;29;20050;-77
2021/05/22 11:30:43;;;;;;;2.15;0.73;;;;;;;18.81;50.14;99381.97;4928581;29;20031;-79
2021/05/22 11:33:20;;;;;;;1.35;0.30;;;;;;;18.84;50.12;99376.34;4578152;29;10001016;-78
2021/05/22 11:35:49;;;;;;;0.85;0.30;;;;;;;18.85;50.99;99371.84;4918106;29;20023;-78
2021/05/22 11:38:21;;;;;;;3.13;0.57;;;;;;;18.88;51.49;99384.84;4910384;29;20038;-77